sensor_id;sensor_type;location;lat;lon;timestamp;P1;durP1;ratioP1;P2;durP2;ratioP2
20393;SDS011;10356;50.544;9.642;2022-10-19T00:00:13;28.55;;;14.15;;
20393;SDS011;10356;50.544;9.642;2022-10-19T00:02:40;25.77;;;14.02;;
20393;SDS011;10356;50.544;9.642;2022-10-19T00:05:06;27.67;;;14.23;;
20393;SDS011;10356;50.544;9.642;2022-10-19T00:07:33;24.85;;;15.55;;
20393;SDS011;10356;50.544;9.642;2022-10-19T00:10:01;26.13;;;14.73;;
20393;SDS011;10356;50.544;9.642;2022-10-19T00:12:28;21.55;;;14.45;;
20393;SDS011;10356;50.544;9.642;2022-10-19T00:14:54;29.05;;;14.52;;
20393;SDS011;10356;50.544;9.642;2022-10-19T00:17:21;28.75;;;14.85;;
20393;SDS011;10356;50.544;9.642;2022-10-19T00:19:48;23.15;;;13.77;;
20393;SDS011;10356;50.544;9.642;2022-10-19T00:22:14;25.52;;;14.73;;
20393;SDS011;10356;50.544;9.642;2022-10-19T00:24:41;25.60;;;15.15;;
20393;SDS011;10356;50.544;9.642;2022-10-19T00:27:09;23.25;;;14.88;;
20393;SDS011;10356;50.544;9.642;2022-10-19T00:29:35;29.20;;;15.02;;
20393;SDS011;10356;50.544;9.642;2022-10-19T00:32:02;25.00;;;13.57;;
20393;SDS011;10356;50.544;9.642;2022-10-19T00:34:28;25.95;;;14.27;;
20393;SDS011;10356;50.544;9.642;2022-10-19T00:36:55;19.77;;;12.93;;
20393;SDS011;10356;50.544;9.642;2022-10-19T00:39:21;23.55;;;14.93;;
20393;SDS011;10356;50.544;9.642;2022-10-19T00:41:48;24.85;;;14.75;;
20393;SDS011;10356;50.544;9.642;2022-10-19T00:47:18;22.23;;;14.32;;
20393;SDS011;10356;50.544;9.642;2022-10-19T00:49:48;23.05;;;13.95;;
20393;SDS011;10356;50.544;9.642;2022-10-19T00:52:16;27.52;;;14.93;;
20393;SDS011;10356;50.544;9.642;2022-10-19T00:54:44;23.15;;;13.95;;
20393;SDS011;10356;50.544;9.642;2022-10-19T00:57:12;32.13;;;15.68;;
20393;SDS011;10356;50.544;9.642;2022-10-19T00:59:39;94.53;;;16.47;;
20393;SDS011;10356;50.544;9.642;2022-10-19T01:02:08;229.60;;;20.02;;
20393;SDS011;10356;50.544;9.642;2022-10-19T01:04:37;199.27;;;17.08;;
20393;SDS011;10356;50.544;9.642;2022-10-19T01:07:07;116.50;;;13.05;;
20393;SDS011;10356;50.544;9.642;2022-10-19T01:09:34;243.23;;;17.63;;
20393;SDS011;10356;50.544;9.642;2022-10-19T01:12:02;180.32;;;14.15;;
20393;SDS011;10356;50.544;9.642;2022-10-19T01:14:37;95.07;;;10.80;;
20393;SDS011;10356;50.544;9.642;2022-10-19T01:17:26;165.48;;;12.52;;
20393;SDS011;10356;50.544;9.642;2022-10-19T01:23:06;72.13;;;9.23;;
20393;SDS011;10356;50.544;9.642;2022-10-19T01:25:48;81.32;;;8.98;;
20393;SDS011;10356;50.544;9.642;2022-10-19T01:28:26;75.20;;;9.00;;
20393;SDS011;10356;50.544;9.642;2022-10-19T01:31:06;86.70;;;8.77;;
20393;SDS011;10356;50.544;9.642;2022-10-19T01:33:45;71.43;;;8.33;;
20393;SDS011;10356;50.544;9.642;2022-10-19T01:36:19;62.72;;;8.70;;
20393;SDS011;10356;50.544;9.642;2022-10-19T01:38:50;151.10;;;11.95;;
20393;SDS011;10356;50.544;9.642;2022-10-19T01:41:23;96.03;;;10.40;;
20393;SDS011;10356;50.544;9.642;2022-10-19T01:43:57;120.23;;;11.33;;
20393;SDS011;10356;50.544;9.642;2022-10-19T01:46:31;84.57;;;9.65;;
20393;SDS011;10356;50.544;9.642;2022-10-19T01:49:02;82.73;;;10.20;;
20393;SDS011;10356;50.544;9.642;2022-10-19T01:51:34;106.87;;;11.90;;
20393;SDS011;10356;50.544;9.642;2022-10-19T01:54:08;33.43;;;8.60;;
20393;SDS011;10356;50.544;9.642;2022-10-19T01:56:38;27.45;;;8.30;;
20393;SDS011;10356;50.544;9.642;2022-10-19T01:59:07;31.42;;;8.93;;
20393;SDS011;10356;50.544;9.642;2022-10-19T02:01:37;33.55;;;9.60;;
20393;SDS011;10356;50.544;9.642;2022-10-19T02:04:07;23.33;;;8.55;;
20393;SDS011;10356;50.544;9.642;2022-10-19T02:06:36;26.17;;;9.03;;
20393;SDS011;10356;50.544;9.642;2022-10-19T02:09:03;26.75;;;8.80;;
20393;SDS011;10356;50.544;9.642;2022-10-19T02:11:29;28.20;;;9.03;;
20393;SDS011;10356;50.544;9.642;2022-10-19T02:13:57;72.53;;;9.60;;
20393;SDS011;10356;50.544;9.642;2022-10-19T02:16:31;50.77;;;8.83;;
20393;SDS011;10356;50.544;9.642;2022-10-19T02:19:03;48.90;;;9.53;;
20393;SDS011;10356;50.544;9.642;2022-10-19T02:21:33;133.73;;;12.67;;
20393;SDS011;10356;50.544;9.642;2022-10-19T02:24:00;38.80;;;10.33;;
20393;SDS011;10356;50.544;9.642;2022-10-19T02:26:27;98.30;;;11.07;;
20393;SDS011;10356;50.544;9.642;2022-10-19T02:28:53;100.37;;;11.30;;
20393;SDS011;10356;50.544;9.642;2022-10-19T02:31:21;148.63;;;12.60;;
20393;SDS011;10356;50.544;9.642;2022-10-19T02:33:48;110.47;;;10.93;;
20393;SDS011;10356;50.544;9.642;2022-10-19T02:36:16;56.63;;;10.73;;
20393;SDS011;10356;50.544;9.642;2022-10-19T02:38:43;105.80;;;11.33;;
20393;SDS011;10356;50.544;9.642;2022-10-19T02:41:12;72.87;;;11.23;;
20393;SDS011;10356;50.544;9.642;2022-10-19T02:43:44;69.40;;;11.70;;
20393;SDS011;10356;50.544;9.642;2022-10-19T02:46:15;127.50;;;12.97;;
20393;SDS011;10356;50.544;9.642;2022-10-19T02:48:46;98.60;;;12.60;;
20393;SDS011;10356;50.544;9.642;2022-10-19T02:51:33;106.70;;;12.43;;
20393;SDS011;10356;50.544;9.642;2022-10-19T02:54:00;150.33;;;13.70;;
20393;SDS011;10356;50.544;9.642;2022-10-19T02:56:28;139.43;;;13.40;;
20393;SDS011;10356;50.544;9.642;2022-10-19T02:58:55;78.57;;;12.37;;
20393;SDS011;10356;50.544;9.642;2022-10-19T03:01:21;132.30;;;13.27;;
20393;SDS011;10356;50.544;9.642;2022-10-19T03:03:48;92.60;;;11.50;;
20393;SDS011;10356;50.544;9.642;2022-10-19T03:06:14;91.90;;;11.55;;
20393;SDS011;10356;50.544;9.642;2022-10-19T03:08:42;67.73;;;10.70;;
20393;SDS011;10356;50.544;9.642;2022-10-19T03:11:08;145.87;;;13.43;;
20393;SDS011;10356;50.544;9.642;2022-10-19T03:13:35;92.67;;;11.83;;
20393;SDS011;10356;50.544;9.642;2022-10-19T03:16:05;84.60;;;12.00;;
20393;SDS011;10356;50.544;9.642;2022-10-19T03:18:33;89.87;;;11.67;;
20393;SDS011;10356;50.544;9.642;2022-10-19T03:21:06;60.40;;;10.23;;
20393;SDS011;10356;50.544;9.642;2022-10-19T03:23:34;63.83;;;10.83;;
20393;SDS011;10356;50.544;9.642;2022-10-19T03:26:02;65.95;;;12.25;;
20393;SDS011;10356;50.544;9.642;2022-10-19T03:28:29;141.73;;;12.93;;
20393;SDS011;10356;50.544;9.642;2022-10-19T03:30:56;97.87;;;12.47;;
20393;SDS011;10356;50.544;9.642;2022-10-19T03:33:23;66.50;;;12.40;;
20393;SDS011;10356;50.544;9.642;2022-10-19T03:35:50;85.97;;;11.63;;
20393;SDS011;10356;50.544;9.642;2022-10-19T03:38:48;91.17;;;12.70;;
20393;SDS011;10356;50.544;9.642;2022-10-19T03:41:15;108.22;;;12.48;;
20393;SDS011;10356;50.544;9.642;2022-10-19T03:43:42;95.83;;;12.03;;
20393;SDS011;10356;50.544;9.642;2022-10-19T03:46:08;101.97;;;12.63;;
20393;SDS011;10356;50.544;9.642;2022-10-19T03:48:35;122.30;;;13.67;;
20393;SDS011;10356;50.544;9.642;2022-10-19T03:51:02;91.57;;;12.63;;
20393;SDS011;10356;50.544;9.642;2022-10-19T03:53:32;149.93;;;14.60;;
20393;SDS011;10356;50.544;9.642;2022-10-19T03:55:59;148.13;;;14.27;;
20393;SDS011;10356;50.544;9.642;2022-10-19T03:58:27;105.67;;;12.67;;
20393;SDS011;10356;50.544;9.642;2022-10-19T04:00:53;258.80;;;15.57;;
20393;SDS011;10356;50.544;9.642;2022-10-19T04:03:20;438.67;;;20.37;;
20393;SDS011;10356;50.544;9.642;2022-10-19T04:05:46;414.07;;;20.77;;
20393;SDS011;10356;50.544;9.642;2022-10-19T04:08:13;94.23;;;11.73;;
20393;SDS011;10356;50.544;9.642;2022-10-19T04:10:41;530.90;;;24.33;;
20393;SDS011;10356;50.544;9.642;2022-10-19T04:13:07;338.90;;;17.70;;
20393;SDS011;10356;50.544;9.642;2022-10-19T04:15:34;165.37;;;15.77;;
20393;SDS011;10356;50.544;9.642;2022-10-19T04:18:01;166.83;;;14.27;;
20393;SDS011;10356;50.544;9.642;2022-10-19T04:20:27;126.83;;;13.80;;
20393;SDS011;10356;50.544;9.642;2022-10-19T04:22:54;245.37;;;16.40;;
20393;SDS011;10356;50.544;9.642;2022-10-19T04:25:20;111.37;;;12.43;;
20393;SDS011;10356;50.544;9.642;2022-10-19T04:27:48;75.40;;;11.47;;
20393;SDS011;10356;50.544;9.642;2022-10-19T04:30:15;92.13;;;12.43;;
20393;SDS011;10356;50.544;9.642;2022-10-19T04:32:41;155.20;;;14.27;;
20393;SDS011;10356;50.544;9.642;2022-10-19T04:35:08;286.67;;;17.17;;
20393;SDS011;10356;50.544;9.642;2022-10-19T04:37:34;56.00;;;11.63;;
20393;SDS011;10356;50.544;9.642;2022-10-19T04:40:01;118.53;;;12.90;;
20393;SDS011;10356;50.544;9.642;2022-10-19T04:42:28;146.27;;;13.87;;
20393;SDS011;10356;50.544;9.642;2022-10-19T04:44:56;145.93;;;14.63;;
20393;SDS011;10356;50.544;9.642;2022-10-19T04:47:22;100.67;;;13.07;;
20393;SDS011;10356;50.544;9.642;2022-10-19T04:49:49;90.20;;;13.13;;
20393;SDS011;10356;50.544;9.642;2022-10-19T04:52:15;115.47;;;13.10;;
20393;SDS011;10356;50.544;9.642;2022-10-19T04:54:42;102.40;;;13.63;;
20393;SDS011;10356;50.544;9.642;2022-10-19T04:57:08;176.43;;;14.43;;
20393;SDS011;10356;50.544;9.642;2022-10-19T04:59:35;268.03;;;16.70;;
20393;SDS011;10356;50.544;9.642;2022-10-19T05:02:03;157.27;;;14.57;;
20393;SDS011;10356;50.544;9.642;2022-10-19T05:04:29;214.93;;;15.23;;
20393;SDS011;10356;50.544;9.642;2022-10-19T05:06:55;168.80;;;14.20;;
20393;SDS011;10356;50.544;9.642;2022-10-19T05:09:22;154.70;;;12.80;;
20393;SDS011;10356;50.544;9.642;2022-10-19T05:11:49;143.23;;;13.43;;
20393;SDS011;10356;50.544;9.642;2022-10-19T05:14:15;227.60;;;17.67;;
20393;SDS011;10356;50.544;9.642;2022-10-19T05:16:41;199.87;;;16.67;;
20393;SDS011;10356;50.544;9.642;2022-10-19T05:19:11;207.83;;;16.87;;
20393;SDS011;10356;50.544;9.642;2022-10-19T05:21:38;111.37;;;14.03;;
20393;SDS011;10356;50.544;9.642;2022-10-19T05:24:05;130.47;;;13.50;;
20393;SDS011;10356;50.544;9.642;2022-10-19T05:26:31;147.60;;;14.60;;
20393;SDS011;10356;50.544;9.642;2022-10-19T05:28:58;187.50;;;18.07;;
20393;SDS011;10356;50.544;9.642;2022-10-19T05:31:28;170.18;;;15.55;;
20393;SDS011;10356;50.544;9.642;2022-10-19T05:33:56;140.23;;;13.73;;
20393;SDS011;10356;50.544;9.642;2022-10-19T05:36:24;169.40;;;14.97;;
20393;SDS011;10356;50.544;9.642;2022-10-19T05:38:53;128.93;;;16.50;;
20393;SDS011;10356;50.544;9.642;2022-10-19T05:41:20;122.77;;;15.47;;
20393;SDS011;10356;50.544;9.642;2022-10-19T05:43:50;86.27;;;12.97;;
20393;SDS011;10356;50.544;9.642;2022-10-19T05:46:18;91.97;;;14.20;;
20393;SDS011;10356;50.544;9.642;2022-10-19T05:48:44;121.40;;;13.70;;
20393;SDS011;10356;50.544;9.642;2022-10-19T05:51:12;179.73;;;14.60;;
20393;SDS011;10356;50.544;9.642;2022-10-19T05:53:42;65.07;;;13.13;;
20393;SDS011;10356;50.544;9.642;2022-10-19T05:56:11;107.73;;;13.97;;
20393;SDS011;10356;50.544;9.642;2022-10-19T05:58:39;75.53;;;13.37;;
20393;SDS011;10356;50.544;9.642;2022-10-19T06:01:06;120.60;;;14.20;;
20393;SDS011;10356;50.544;9.642;2022-10-19T06:03:33;138.27;;;13.90;;
20393;SDS011;10356;50.544;9.642;2022-10-19T06:06:01;155.93;;;15.50;;
20393;SDS011;10356;50.544;9.642;2022-10-19T06:08:28;207.13;;;16.50;;
20393;SDS011;10356;50.544;9.642;2022-10-19T06:11:04;149.93;;;14.40;;
20393;SDS011;10356;50.544;9.642;2022-10-19T06:13:31;166.23;;;15.07;;
20393;SDS011;10356;50.544;9.642;2022-10-19T06:15:58;133.83;;;13.43;;
20393;SDS011;10356;50.544;9.642;2022-10-19T06:18:24;174.33;;;15.13;;
20393;SDS011;10356;50.544;9.642;2022-10-19T06:20:51;203.97;;;16.70;;
20393;SDS011;10356;50.544;9.642;2022-10-19T06:23:18;128.93;;;13.43;;
20393;SDS011;10356;50.544;9.642;2022-10-19T06:25:44;47.50;;;12.43;;
20393;SDS011;10356;50.544;9.642;2022-10-19T06:28:12;51.93;;;12.37;;
20393;SDS011;10356;50.544;9.642;2022-10-19T06:30:39;41.43;;;12.37;;
20393;SDS011;10356;50.544;9.642;2022-10-19T06:33:06;49.53;;;13.17;;
20393;SDS011;10356;50.544;9.642;2022-10-19T06:35:32;60.20;;;13.47;;
20393;SDS011;10356;50.544;9.642;2022-10-19T06:37:59;47.00;;;13.07;;
20393;SDS011;10356;50.544;9.642;2022-10-19T06:40:26;45.30;;;12.87;;
20393;SDS011;10356;50.544;9.642;2022-10-19T06:42:53;23.33;;;11.17;;
20393;SDS011;10356;50.544;9.642;2022-10-19T06:45:21;25.00;;;11.13;;
20393;SDS011;10356;50.544;9.642;2022-10-19T06:47:48;29.10;;;11.70;;
20393;SDS011;10356;50.544;9.642;2022-10-19T06:50:15;29.03;;;10.53;;
20393;SDS011;10356;50.544;9.642;2022-10-19T06:52:41;30.70;;;11.50;;
20393;SDS011;10356;50.544;9.642;2022-10-19T06:55:08;28.63;;;11.43;;
20393;SDS011;10356;50.544;9.642;2022-10-19T06:57:35;29.40;;;11.07;;
20393;SDS011;10356;50.544;9.642;2022-10-19T07:00:01;27.07;;;11.30;;
20393;SDS011;10356;50.544;9.642;2022-10-19T07:02:30;30.30;;;11.17;;
20393;SDS011;10356;50.544;9.642;2022-10-19T07:04:57;32.27;;;11.73;;
20393;SDS011;10356;50.544;9.642;2022-10-19T07:07:24;25.30;;;12.60;;
20393;SDS011;10356;50.544;9.642;2022-10-19T07:09:50;23.17;;;13.13;;
20393;SDS011;10356;50.544;9.642;2022-10-19T07:12:17;23.97;;;12.83;;
20393;SDS011;10356;50.544;9.642;2022-10-19T07:14:44;31.17;;;13.43;;
20393;SDS011;10356;50.544;9.642;2022-10-19T07:17:11;23.30;;;13.40;;
20393;SDS011;10356;50.544;9.642;2022-10-19T07:19:39;23.10;;;12.40;;
20393;SDS011;10356;50.544;9.642;2022-10-19T07:22:06;31.00;;;13.23;;
20393;SDS011;10356;50.544;9.642;2022-10-19T07:24:33;19.97;;;11.67;;
20393;SDS011;10356;50.544;9.642;2022-10-19T07:26:59;20.93;;;11.60;;
20393;SDS011;10356;50.544;9.642;2022-10-19T07:29:26;16.83;;;11.03;;
20393;SDS011;10356;50.544;9.642;2022-10-19T07:31:52;21.77;;;11.20;;
20393;SDS011;10356;50.544;9.642;2022-10-19T07:34:18;19.23;;;10.87;;
20393;SDS011;10356;50.544;9.642;2022-10-19T07:36:46;22.87;;;11.37;;
20393;SDS011;10356;50.544;9.642;2022-10-19T07:39:13;16.47;;;10.23;;
20393;SDS011;10356;50.544;9.642;2022-10-19T07:41:42;17.27;;;10.20;;
20393;SDS011;10356;50.544;9.642;2022-10-19T07:44:09;12.67;;;9.40;;
20393;SDS011;10356;50.544;9.642;2022-10-19T07:46:36;13.13;;;10.17;;
20393;SDS011;10356;50.544;9.642;2022-10-19T07:49:04;17.97;;;10.60;;
20393;SDS011;10356;50.544;9.642;2022-10-19T07:51:32;18.17;;;9.80;;
20393;SDS011;10356;50.544;9.642;2022-10-19T07:54:00;14.77;;;9.47;;
20393;SDS011;10356;50.544;9.642;2022-10-19T07:56:27;17.63;;;10.23;;
20393;SDS011;10356;50.544;9.642;2022-10-19T07:58:56;16.10;;;9.30;;
20393;SDS011;10356;50.544;9.642;2022-10-19T08:01:25;15.07;;;10.13;;
20393;SDS011;10356;50.544;9.642;2022-10-19T08:03:52;11.97;;;8.63;;
20393;SDS011;10356;50.544;9.642;2022-10-19T08:06:20;16.00;;;9.20;;
20393;SDS011;10356;50.544;9.642;2022-10-19T08:08:48;16.90;;;9.77;;
20393;SDS011;10356;50.544;9.642;2022-10-19T08:11:17;14.67;;;7.77;;
20393;SDS011;10356;50.544;9.642;2022-10-19T08:13:44;12.07;;;7.87;;
20393;SDS011;10356;50.544;9.642;2022-10-19T08:16:21;18.10;;;8.83;;
20393;SDS011;10356;50.544;9.642;2022-10-19T08:18:50;13.77;;;8.07;;
20393;SDS011;10356;50.544;9.642;2022-10-19T08:21:17;14.27;;;8.13;;
20393;SDS011;10356;50.544;9.642;2022-10-19T08:23:44;12.10;;;7.90;;
20393;SDS011;10356;50.544;9.642;2022-10-19T08:26:10;14.87;;;7.87;;
20393;SDS011;10356;50.544;9.642;2022-10-19T08:28:38;11.00;;;6.80;;
20393;SDS011;10356;50.544;9.642;2022-10-19T08:31:08;14.20;;;7.00;;
20393;SDS011;10356;50.544;9.642;2022-10-19T08:33:35;14.30;;;7.23;;
20393;SDS011;10356;50.544;9.642;2022-10-19T08:36:03;10.93;;;6.23;;
20393;SDS011;10356;50.544;9.642;2022-10-19T08:38:30;11.23;;;6.87;;
20393;SDS011;10356;50.544;9.642;2022-10-19T08:40:56;16.43;;;6.93;;
20393;SDS011;10356;50.544;9.642;2022-10-19T08:43:25;12.20;;;5.97;;
20393;SDS011;10356;50.544;9.642;2022-10-19T08:46:13;11.40;;;5.73;;
20393;SDS011;10356;50.544;9.642;2022-10-19T08:48:48;13.57;;;6.40;;
20393;SDS011;10356;50.544;9.642;2022-10-19T08:51:14;12.23;;;5.83;;
20393;SDS011;10356;50.544;9.642;2022-10-19T08:53:43;14.07;;;5.60;;
20393;SDS011;10356;50.544;9.642;2022-10-19T08:56:20;12.25;;;4.72;;
20393;SDS011;10356;50.544;9.642;2022-10-19T08:58:55;14.13;;;5.50;;
20393;SDS011;10356;50.544;9.642;2022-10-19T09:01:36;11.50;;;4.93;;
20393;SDS011;10356;50.544;9.642;2022-10-19T09:04:06;8.20;;;4.25;;
20393;SDS011;10356;50.544;9.642;2022-10-19T09:06:43;14.87;;;5.60;;
20393;SDS011;10356;50.544;9.642;2022-10-19T09:09:17;11.47;;;4.57;;
20393;SDS011;10356;50.544;9.642;2022-10-19T09:11:46;10.40;;;4.20;;
20393;SDS011;10356;50.544;9.642;2022-10-19T09:14:15;8.70;;;4.87;;
20393;SDS011;10356;50.544;9.642;2022-10-19T09:16:47;9.63;;;4.28;;
20393;SDS011;10356;50.544;9.642;2022-10-19T09:19:14;8.23;;;3.70;;
20393;SDS011;10356;50.544;9.642;2022-10-19T09:21:47;11.45;;;3.83;;
20393;SDS011;10356;50.544;9.642;2022-10-19T09:24:21;12.15;;;3.95;;
20393;SDS011;10356;50.544;9.642;2022-10-19T09:26:54;8.83;;;4.40;;
20393;SDS011;10356;50.544;9.642;2022-10-19T09:29:23;8.90;;;3.40;;
20393;SDS011;10356;50.544;9.642;2022-10-19T09:31:54;9.77;;;3.90;;
20393;SDS011;10356;50.544;9.642;2022-10-19T09:34:24;6.50;;;3.20;;
20393;SDS011;10356;50.544;9.642;2022-10-19T09:36:55;10.43;;;4.00;;
20393;SDS011;10356;50.544;9.642;2022-10-19T09:39:23;8.27;;;3.40;;
20393;SDS011;10356;50.544;9.642;2022-10-19T09:41:52;9.80;;;3.77;;
20393;SDS011;10356;50.544;9.642;2022-10-19T09:44:20;10.35;;;3.25;;
20393;SDS011;10356;50.544;9.642;2022-10-19T09:46:49;10.25;;;3.40;;
20393;SDS011;10356;50.544;9.642;2022-10-19T09:49:37;9.32;;;3.05;;
20393;SDS011;10356;50.544;9.642;2022-10-19T09:52:04;6.30;;;3.00;;
20393;SDS011;10356;50.544;9.642;2022-10-19T09:54:48;9.27;;;3.08;;
20393;SDS011;10356;50.544;9.642;2022-10-19T09:57:18;9.52;;;3.63;;
20393;SDS011;10356;50.544;9.642;2022-10-19T09:59:45;7.00;;;2.72;;
20393;SDS011;10356;50.544;9.642;2022-10-19T10:02:18;7.47;;;2.65;;
20393;SDS011;10356;50.544;9.642;2022-10-19T10:04:47;6.45;;;2.65;;
20393;SDS011;10356;50.544;9.642;2022-10-19T10:07:21;10.65;;;2.65;;
20393;SDS011;10356;50.544;9.642;2022-10-19T10:09:52;6.03;;;2.60;;
20393;SDS011;10356;50.544;9.642;2022-10-19T10:12:19;6.45;;;2.13;;
20393;SDS011;10356;50.544;9.642;2022-10-19T10:14:47;10.23;;;2.28;;
20393;SDS011;10356;50.544;9.642;2022-10-19T10:17:16;9.18;;;2.45;;
20393;SDS011;10356;50.544;9.642;2022-10-19T10:19:51;8.70;;;2.10;;
20393;SDS011;10356;50.544;9.642;2022-10-19T10:22:29;9.05;;;2.03;;
20393;SDS011;10356;50.544;9.642;2022-10-19T10:24:57;7.13;;;2.83;;
20393;SDS011;10356;50.544;9.642;2022-10-19T10:27:28;7.60;;;1.98;;
20393;SDS011;10356;50.544;9.642;2022-10-19T10:29:56;13.98;;;2.65;;
20393;SDS011;10356;50.544;9.642;2022-10-19T10:32:23;8.02;;;1.80;;
20393;SDS011;10356;50.544;9.642;2022-10-19T10:34:57;6.80;;;2.20;;
20393;SDS011;10356;50.544;9.642;2022-10-19T10:37:28;6.88;;;2.05;;
20393;SDS011;10356;50.544;9.642;2022-10-19T10:39:57;7.75;;;2.50;;
20393;SDS011;10356;50.544;9.642;2022-10-19T10:42:26;8.60;;;2.28;;
20393;SDS011;10356;50.544;9.642;2022-10-19T10:44:55;8.48;;;2.47;;
20393;SDS011;10356;50.544;9.642;2022-10-19T10:47:23;10.75;;;2.78;;
20393;SDS011;10356;50.544;9.642;2022-10-19T10:49:52;7.78;;;2.72;;
20393;SDS011;10356;50.544;9.642;2022-10-19T10:52:23;8.93;;;2.65;;
20393;SDS011;10356;50.544;9.642;2022-10-19T10:54:57;9.35;;;2.67;;
20393;SDS011;10356;50.544;9.642;2022-10-19T10:57:24;7.18;;;2.78;;
20393;SDS011;10356;50.544;9.642;2022-10-19T10:59:56;7.65;;;2.13;;
20393;SDS011;10356;50.544;9.642;2022-10-19T11:02:34;5.15;;;2.72;;
20393;SDS011;10356;50.544;9.642;2022-10-19T11:05:06;9.27;;;2.10;;
20393;SDS011;10356;50.544;9.642;2022-10-19T11:07:40;6.18;;;2.40;;
20393;SDS011;10356;50.544;9.642;2022-10-19T11:10:19;5.28;;;2.50;;
20393;SDS011;10356;50.544;9.642;2022-10-19T11:12:52;6.95;;;2.30;;
20393;SDS011;10356;50.544;9.642;2022-10-19T11:15:24;6.70;;;1.83;;
20393;SDS011;10356;50.544;9.642;2022-10-19T11:18:01;10.20;;;2.63;;
20393;SDS011;10356;50.544;9.642;2022-10-19T11:20:39;7.40;;;2.10;;
20393;SDS011;10356;50.544;9.642;2022-10-19T11:23:14;4.03;;;1.77;;
20393;SDS011;10356;50.544;9.642;2022-10-19T11:25:49;6.82;;;3.03;;
20393;SDS011;10356;50.544;9.642;2022-10-19T11:28:31;9.27;;;2.20;;
20393;SDS011;10356;50.544;9.642;2022-10-19T11:31:10;6.65;;;2.05;;
20393;SDS011;10356;50.544;9.642;2022-10-19T11:33:46;6.35;;;2.28;;
20393;SDS011;10356;50.544;9.642;2022-10-19T11:36:28;6.20;;;1.92;;
20393;SDS011;10356;50.544;9.642;2022-10-19T11:39:16;11.90;;;2.05;;
20393;SDS011;10356;50.544;9.642;2022-10-19T11:42:01;7.80;;;2.20;;
20393;SDS011;10356;50.544;9.642;2022-10-19T11:44:37;4.80;;;1.67;;
20393;SDS011;10356;50.544;9.642;2022-10-19T11:47:28;4.07;;;1.73;;
20393;SDS011;10356;50.544;9.642;2022-10-19T11:50:10;8.68;;;2.25;;
20393;SDS011;10356;50.544;9.642;2022-10-19T11:52:54;8.35;;;2.00;;
20393;SDS011;10356;50.544;9.642;2022-10-19T11:55:34;6.35;;;1.90;;
20393;SDS011;10356;50.544;9.642;2022-10-19T11:58:11;4.90;;;1.98;;
20393;SDS011;10356;50.544;9.642;2022-10-19T12:00:53;4.70;;;2.15;;
20393;SDS011;10356;50.544;9.642;2022-10-19T12:03:38;5.32;;;2.00;;
20393;SDS011;10356;50.544;9.642;2022-10-19T12:06:26;5.18;;;1.80;;
20393;SDS011;10356;50.544;9.642;2022-10-19T12:09:01;8.15;;;2.20;;
20393;SDS011;10356;50.544;9.642;2022-10-19T12:11:43;7.97;;;2.00;;
20393;SDS011;10356;50.544;9.642;2022-10-19T12:14:16;6.75;;;1.77;;
20393;SDS011;10356;50.544;9.642;2022-10-19T12:16:48;4.22;;;1.60;;
20393;SDS011;10356;50.544;9.642;2022-10-19T12:19:19;8.23;;;3.25;;
20393;SDS011;10356;50.544;9.642;2022-10-19T12:21:48;4.60;;;1.70;;
20393;SDS011;10356;50.544;9.642;2022-10-19T12:24:19;5.07;;;1.80;;
20393;SDS011;10356;50.544;9.642;2022-10-19T12:26:53;5.03;;;1.70;;
20393;SDS011;10356;50.544;9.642;2022-10-19T12:29:21;6.85;;;1.85;;
20393;SDS011;10356;50.544;9.642;2022-10-19T12:31:51;6.15;;;2.15;;
20393;SDS011;10356;50.544;9.642;2022-10-19T12:34:21;4.78;;;1.85;;
20393;SDS011;10356;50.544;9.642;2022-10-19T12:36:57;9.82;;;3.03;;
20393;SDS011;10356;50.544;9.642;2022-10-19T12:39:29;6.88;;;2.42;;
20393;SDS011;10356;50.544;9.642;2022-10-19T12:42:08;6.70;;;2.13;;
20393;SDS011;10356;50.544;9.642;2022-10-19T12:44:52;3.95;;;1.85;;
20393;SDS011;10356;50.544;9.642;2022-10-19T12:47:32;9.50;;;2.50;;
20393;SDS011;10356;50.544;9.642;2022-10-19T12:49:59;4.72;;;2.65;;
20393;SDS011;10356;50.544;9.642;2022-10-19T12:52:40;7.95;;;2.85;;
20393;SDS011;10356;50.544;9.642;2022-10-19T12:55:22;6.68;;;1.90;;
20393;SDS011;10356;50.544;9.642;2022-10-19T12:57:59;5.03;;;2.20;;
20393;SDS011;10356;50.544;9.642;2022-10-19T13:00:29;6.32;;;2.30;;
20393;SDS011;10356;50.544;9.642;2022-10-19T13:03:00;8.70;;;2.47;;
20393;SDS011;10356;50.544;9.642;2022-10-19T13:05:29;8.35;;;2.13;;
20393;SDS011;10356;50.544;9.642;2022-10-19T13:07:59;9.30;;;2.15;;
20393;SDS011;10356;50.544;9.642;2022-10-19T13:10:27;7.30;;;2.35;;
20393;SDS011;10356;50.544;9.642;2022-10-19T13:12:56;7.38;;;2.10;;
20393;SDS011;10356;50.544;9.642;2022-10-19T13:21:44;7.70;;;2.60;;
20393;SDS011;10356;50.544;9.642;2022-10-19T13:24:26;8.90;;;2.47;;
20393;SDS011;10356;50.544;9.642;2022-10-19T13:30:03;3.70;;;2.10;;
20393;SDS011;10356;50.544;9.642;2022-10-19T13:32:36;7.18;;;2.38;;
20393;SDS011;10356;50.544;9.642;2022-10-19T13:35:20;6.60;;;2.30;;
20393;SDS011;10356;50.544;9.642;2022-10-19T13:41:00;8.20;;;2.33;;
20393;SDS011;10356;50.544;9.642;2022-10-19T13:43:30;7.28;;;2.85;;
20393;SDS011;10356;50.544;9.642;2022-10-19T13:46:01;6.63;;;2.88;;
20393;SDS011;10356;50.544;9.642;2022-10-19T13:48:35;10.82;;;3.53;;
20393;SDS011;10356;50.544;9.642;2022-10-19T13:51:13;5.32;;;2.38;;
20393;SDS011;10356;50.544;9.642;2022-10-19T13:53:49;7.40;;;1.90;;
20393;SDS011;10356;50.544;9.642;2022-10-19T13:56:34;6.20;;;3.35;;
20393;SDS011;10356;50.544;9.642;2022-10-19T14:02:18;7.22;;;2.30;;
20393;SDS011;10356;50.544;9.642;2022-10-19T14:05:03;8.30;;;2.92;;
20393;SDS011;10356;50.544;9.642;2022-10-19T14:07:45;7.00;;;2.45;;
20393;SDS011;10356;50.544;9.642;2022-10-19T14:10:20;8.60;;;3.10;;
20393;SDS011;10356;50.544;9.642;2022-10-19T14:12:48;6.20;;;2.50;;
20393;SDS011;10356;50.544;9.642;2022-10-19T14:15:21;10.02;;;2.60;;
20393;SDS011;10356;50.544;9.642;2022-10-19T14:17:49;6.53;;;2.50;;
20393;SDS011;10356;50.544;9.642;2022-10-19T14:20:28;10.95;;;2.20;;
20393;SDS011;10356;50.544;9.642;2022-10-19T14:22:57;9.45;;;1.90;;
20393;SDS011;10356;50.544;9.642;2022-10-19T14:25:42;4.65;;;1.83;;
20393;SDS011;10356;50.544;9.642;2022-10-19T14:28:15;8.02;;;1.98;;
20393;SDS011;10356;50.544;9.642;2022-10-19T14:30:42;5.68;;;1.67;;
20393;SDS011;10356;50.544;9.642;2022-10-19T14:33:09;7.28;;;2.05;;
20393;SDS011;10356;50.544;9.642;2022-10-19T14:35:41;4.43;;;1.70;;
20393;SDS011;10356;50.544;9.642;2022-10-19T14:38:14;10.10;;;2.10;;
20393;SDS011;10356;50.544;9.642;2022-10-19T14:40:45;4.60;;;1.77;;
20393;SDS011;10356;50.544;9.642;2022-10-19T14:43:17;4.50;;;1.67;;
20393;SDS011;10356;50.544;9.642;2022-10-19T14:48:37;4.60;;;1.80;;
20393;SDS011;10356;50.544;9.642;2022-10-19T14:51:07;7.97;;;2.00;;
20393;SDS011;10356;50.544;9.642;2022-10-19T14:53:41;8.45;;;2.15;;
20393;SDS011;10356;50.544;9.642;2022-10-19T14:56:14;6.68;;;2.05;;
20393;SDS011;10356;50.544;9.642;2022-10-19T14:58:49;7.10;;;1.80;;
20393;SDS011;10356;50.544;9.642;2022-10-19T15:01:18;9.75;;;1.58;;
20393;SDS011;10356;50.544;9.642;2022-10-19T15:03:47;9.02;;;1.90;;
20393;SDS011;10356;50.544;9.642;2022-10-19T15:06:18;6.43;;;1.60;;
20393;SDS011;10356;50.544;9.642;2022-10-19T15:08:48;5.68;;;1.77;;
20393;SDS011;10356;50.544;9.642;2022-10-19T15:11:19;5.25;;;1.70;;
20393;SDS011;10356;50.544;9.642;2022-10-19T15:13:53;5.57;;;1.55;;